sensor_id;sensor_type;location;lat;lon;timestamp;temperature;humidity
7360;DHT22;3720;48.274;7.796;2023-11-22T00:00:39;8.70;99.90
7360;DHT22;3720;48.274;7.796;2023-11-22T00:03:11;8.70;99.90
7360;DHT22;3720;48.274;7.796;2023-11-22T00:05:44;8.70;99.90
7360;DHT22;3720;48.274;7.796;2023-11-22T00:08:17;8.70;99.90
7360;DHT22;3720;48.274;7.796;2023-11-22T00:10:49;8.70;99.90
7360;DHT22;3720;48.274;7.796;2023-11-22T00:13:21;8.70;99.90
7360;DHT22;3720;48.274;7.796;2023-11-22T00:15:52;8.80;99.90
7360;DHT22;3720;48.274;7.796;2023-11-22T00:18:24;8.80;99.90
7360;DHT22;3720;48.274;7.796;2023-11-22T00:20:58;8.80;99.90
7360;DHT22;3720;48.274;7.796;2023-11-22T00:23:30;8.80;99.90
7360;DHT22;3720;48.274;7.796;2023-11-22T00:26:03;8.70;99.90
7360;DHT22;3720;48.274;7.796;2023-11-22T00:28:36;8.70;99.90
7360;DHT22;3720;48.274;7.796;2023-11-22T00:31:08;8.70;99.90
7360;DHT22;3720;48.274;7.796;2023-11-22T00:33:40;8.70;99.90
7360;DHT22;3720;48.274;7.796;2023-11-22T00:36:13;8.70;99.90
7360;DHT22;3720;48.274;7.796;2023-11-22T00:38:47;8.70;99.90
7360;DHT22;3720;48.274;7.796;2023-11-22T00:41:18;8.70;99.90
7360;DHT22;3720;48.274;7.796;2023-11-22T00:43:51;8.70;99.90
7360;DHT22;3720;48.274;7.796;2023-11-22T00:46:22;8.70;99.90
7360;DHT22;3720;48.274;7.796;2023-11-22T00:48:55;8.70;99.90
7360;DHT22;3720;48.274;7.796;2023-11-22T00:51:29;8.70;99.90
7360;DHT22;3720;48.274;7.796;2023-11-22T00:54:01;8.80;99.90
7360;DHT22;3720;48.274;7.796;2023-11-22T00:56:33;8.80;99.90
7360;DHT22;3720;48.274;7.796;2023-11-22T00:59:05;8.80;99.90
7360;DHT22;3720;48.274;7.796;2023-11-22T01:01:37;8.80;99.90
7360;DHT22;3720;48.274;7.796;2023-11-22T01:04:09;8.80;99.90
7360;DHT22;3720;48.274;7.796;2023-11-22T01:06:43;8.80;99.90
7360;DHT22;3720;48.274;7.796;2023-11-22T01:09:15;8.80;99.90
7360;DHT22;3720;48.274;7.796;2023-11-22T01:11:47;8.80;99.90
7360;DHT22;3720;48.274;7.796;2023-11-22T01:14:19;8.80;99.90
7360;DHT22;3720;48.274;7.796;2023-11-22T01:16:50;8.80;99.90
7360;DHT22;3720;48.274;7.796;2023-11-22T01:19:22;8.80;99.90
7360;DHT22;3720;48.274;7.796;2023-11-22T01:21:55;8.80;99.90
7360;DHT22;3720;48.274;7.796;2023-11-22T01:24:27;8.80;99.90
7360;DHT22;3720;48.274;7.796;2023-11-22T01:26:59;8.90;99.90
7360;DHT22;3720;48.274;7.796;2023-11-22T01:29:32;8.90;99.90
7360;DHT22;3720;48.274;7.796;2023-11-22T01:32:05;8.80;99.90
7360;DHT22;3720;48.274;7.796;2023-11-22T01:34:37;8.90;99.90
7360;DHT22;3720;48.274;7.796;2023-11-22T01:37:10;8.90;99.90
7360;DHT22;3720;48.274;7.796;2023-11-22T01:39:42;8.90;99.90
7360;DHT22;3720;48.274;7.796;2023-11-22T01:42:14;8.70;99.90
7360;DHT22;3720;48.274;7.796;2023-11-22T01:44:46;8.60;99.90
7360;DHT22;3720;48.274;7.796;2023-11-22T01:47:18;8.50;99.90
7360;DHT22;3720;48.274;7.796;2023-11-22T01:49:50;8.50;99.90
7360;DHT22;3720;48.274;7.796;2023-11-22T01:52:23;8.30;99.90
7360;DHT22;3720;48.274;7.796;2023-11-22T01:54:55;8.20;99.90
7360;DHT22;3720;48.274;7.796;2023-11-22T01:57:27;8.20;99.90
7360;DHT22;3720;48.274;7.796;2023-11-22T02:00:00;8.10;99.90
7360;DHT22;3720;48.274;7.796;2023-11-22T02:02:33;8.00;99.90
7360;DHT22;3720;48.274;7.796;2023-11-22T02:05:05;8.00;99.90
7360;DHT22;3720;48.274;7.796;2023-11-22T02:07:39;7.90;99.90
7360;DHT22;3720;48.274;7.796;2023-11-22T02:10:12;7.80;99.90
7360;DHT22;3720;48.274;7.796;2023-11-22T02:12:44;7.80;99.90
7360;DHT22;3720;48.274;7.796;2023-11-22T02:15:16;7.80;99.90
7360;DHT22;3720;48.274;7.796;2023-11-22T02:17:48;7.80;99.90
7360;DHT22;3720;48.274;7.796;2023-11-22T02:20:19;7.70;99.90
7360;DHT22;3720;48.274;7.796;2023-11-22T02:22:53;7.70;99.90
7360;DHT22;3720;48.274;7.796;2023-11-22T02:25:27;7.70;99.90
7360;DHT22;3720;48.274;7.796;2023-11-22T02:27:59;7.60;99.90
7360;DHT22;3720;48.274;7.796;2023-11-22T02:30:31;7.60;99.90
7360;DHT22;3720;48.274;7.796;2023-11-22T02:33:03;7.50;99.90
7360;DHT22;3720;48.274;7.796;2023-11-22T02:35:35;7.40;99.90
7360;DHT22;3720;48.274;7.796;2023-11-22T02:38:07;7.40;99.90
7360;DHT22;3720;48.274;7.796;2023-11-22T02:40:40;7.40;99.90
7360;DHT22;3720;48.274;7.796;2023-11-22T02:43:12;7.40;99.90
7360;DHT22;3720;48.274;7.796;2023-11-22T02:45:45;7.30;99.90
7360;DHT22;3720;48.274;7.796;2023-11-22T02:48:18;7.20;99.90
7360;DHT22;3720;48.274;7.796;2023-11-22T02:50:49;7.20;99.90
7360;DHT22;3720;48.274;7.796;2023-11-22T02:53:24;7.20;99.90
7360;DHT22;3720;48.274;7.796;2023-11-22T02:56:00;7.20;99.90
7360;DHT22;3720;48.274;7.796;2023-11-22T02:58:32;7.10;99.90
7360;DHT22;3720;48.274;7.796;2023-11-22T03:01:04;7.00;99.90
7360;DHT22;3720;48.274;7.796;2023-11-22T03:03:36;7.00;99.90
7360;DHT22;3720;48.274;7.796;2023-11-22T03:06:08;6.90;99.90
7360;DHT22;3720;48.274;7.796;2023-11-22T03:08:39;6.90;99.90
7360;DHT22;3720;48.274;7.796;2023-11-22T03:11:13;6.80;99.90
7360;DHT22;3720;48.274;7.796;2023-11-22T03:13:44;6.80;99.90
7360;DHT22;3720;48.274;7.796;2023-11-22T03:16:16;6.70;99.90
7360;DHT22;3720;48.274;7.796;2023-11-22T03:18:49;6.70;99.90
7360;DHT22;3720;48.274;7.796;2023-11-22T03:21:21;6.70;99.90
7360;DHT22;3720;48.274;7.796;2023-11-22T03:23:53;6.60;99.90
7360;DHT22;3720;48.274;7.796;2023-11-22T03:26:26;6.60;99.90
7360;DHT22;3720;48.274;7.796;2023-11-22T03:28:58;6.50;99.90
7360;DHT22;3720;48.274;7.796;2023-11-22T03:31:30;6.40;99.90
7360;DHT22;3720;48.274;7.796;2023-11-22T03:34:02;6.40;99.90
7360;DHT22;3720;48.274;7.796;2023-11-22T03:36:33;6.40;99.90
7360;DHT22;3720;48.274;7.796;2023-11-22T03:39:05;6.40;99.90
7360;DHT22;3720;48.274;7.796;2023-11-22T03:41:38;6.40;99.90
7360;DHT22;3720;48.274;7.796;2023-11-22T03:44:10;6.30;99.90
7360;DHT22;3720;48.274;7.796;2023-11-22T03:46:42;6.30;99.90
7360;DHT22;3720;48.274;7.796;2023-11-22T03:49:14;6.30;99.90
7360;DHT22;3720;48.274;7.796;2023-11-22T03:51:47;6.40;99.90
7360;DHT22;3720;48.274;7.796;2023-11-22T03:54:19;6.30;99.90
7360;DHT22;3720;48.274;7.796;2023-11-22T03:56:52;6.30;99.90
7360;DHT22;3720;48.274;7.796;2023-11-22T03:59:24;6.30;99.90
7360;DHT22;3720;48.274;7.796;2023-11-22T04:01:56;6.30;99.90
7360;DHT22;3720;48.274;7.796;2023-11-22T04:04:28;6.30;99.90
7360;DHT22;3720;48.274;7.796;2023-11-22T04:07:00;6.20;99.90
7360;DHT22;3720;48.274;7.796;2023-11-22T04:09:32;6.20;99.90
7360;DHT22;3720;48.274;7.796;2023-11-22T04:12:06;6.20;99.90
7360;DHT22;3720;48.274;7.796;2023-11-22T04:14:38;6.20;99.90
7360;DHT22;3720;48.274;7.796;2023-11-22T04:17:10;6.20;99.90
7360;DHT22;3720;48.274;7.796;2023-11-22T04:19:42;6.20;99.90
7360;DHT22;3720;48.274;7.796;2023-11-22T04:22:14;6.10;99.90
7360;DHT22;3720;48.274;7.796;2023-11-22T04:24:46;6.20;99.90
7360;DHT22;3720;48.274;7.796;2023-11-22T04:27:19;6.10;99.90
7360;DHT22;3720;48.274;7.796;2023-11-22T04:29:51;6.20;99.90
7360;DHT22;3720;48.274;7.796;2023-11-22T04:32:23;6.10;99.90
7360;DHT22;3720;48.274;7.796;2023-11-22T04:34:55;6.10;99.90
7360;DHT22;3720;48.274;7.796;2023-11-22T04:37:26;6.10;99.90
7360;DHT22;3720;48.274;7.796;2023-11-22T04:40:04;6.20;99.90
7360;DHT22;3720;48.274;7.796;2023-11-22T04:42:39;6.20;99.90
7360;DHT22;3720;48.274;7.796;2023-11-22T04:45:11;6.20;99.90
7360;DHT22;3720;48.274;7.796;2023-11-22T04:47:43;6.10;99.90
7360;DHT22;3720;48.274;7.796;2023-11-22T04:50:15;6.10;99.90
7360;DHT22;3720;48.274;7.796;2023-11-22T04:52:48;6.10;99.90
7360;DHT22;3720;48.274;7.796;2023-11-22T04:55:19;6.10;99.90
7360;DHT22;3720;48.274;7.796;2023-11-22T04:57:55;6.00;99.90
7360;DHT22;3720;48.274;7.796;2023-11-22T05:00:27;6.10;99.90
7360;DHT22;3720;48.274;7.796;2023-11-22T05:02:58;6.00;99.90
7360;DHT22;3720;48.274;7.796;2023-11-22T05:05:30;6.00;99.90
7360;DHT22;3720;48.274;7.796;2023-11-22T05:08:02;6.00;99.90
7360;DHT22;3720;48.274;7.796;2023-11-22T05:10:34;6.00;99.90
7360;DHT22;3720;48.274;7.796;2023-11-22T05:13:07;6.00;99.90
7360;DHT22;3720;48.274;7.796;2023-11-22T05:15:39;6.00;99.90
7360;DHT22;3720;48.274;7.796;2023-11-22T05:18:10;5.90;99.90
7360;DHT22;3720;48.274;7.796;2023-11-22T05:20:42;6.00;99.90
7360;DHT22;3720;48.274;7.796;2023-11-22T05:23:14;5.90;99.90
7360;DHT22;3720;48.274;7.796;2023-11-22T05:25:46;5.90;99.90
7360;DHT22;3720;48.274;7.796;2023-11-22T05:28:21;5.90;99.90
7360;DHT22;3720;48.274;7.796;2023-11-22T05:30:52;5.80;99.90
7360;DHT22;3720;48.274;7.796;2023-11-22T05:33:24;5.90;99.90
7360;DHT22;3720;48.274;7.796;2023-11-22T05:35:56;5.80;99.90
7360;DHT22;3720;48.274;7.796;2023-11-22T05:38:28;5.80;99.90
7360;DHT22;3720;48.274;7.796;2023-11-22T05:41:01;5.70;99.90
7360;DHT22;3720;48.274;7.796;2023-11-22T05:43:34;5.70;99.90
7360;DHT22;3720;48.274;7.796;2023-11-22T05:46:07;5.80;99.90
7360;DHT22;3720;48.274;7.796;2023-11-22T05:48:39;5.80;99.90
7360;DHT22;3720;48.274;7.796;2023-11-22T05:51:11;5.70;99.90
7360;DHT22;3720;48.274;7.796;2023-11-22T05:53:43;5.70;99.90
7360;DHT22;3720;48.274;7.796;2023-11-22T05:56:15;5.70;99.90
7360;DHT22;3720;48.274;7.796;2023-11-22T05:58:48;5.70;99.90
7360;DHT22;3720;48.274;7.796;2023-11-22T06:01:20;5.70;99.90
7360;DHT22;3720;48.274;7.796;2023-11-22T06:03:53;5.70;99.90
7360;DHT22;3720;48.274;7.796;2023-11-22T06:06:25;5.70;99.90
7360;DHT22;3720;48.274;7.796;2023-11-22T06:08:57;5.60;99.90
7360;DHT22;3720;48.274;7.796;2023-11-22T06:11:29;5.70;99.90
7360;DHT22;3720;48.274;7.796;2023-11-22T06:14:02;5.60;99.90
7360;DHT22;3720;48.274;7.796;2023-11-22T06:16:34;5.60;99.90
7360;DHT22;3720;48.274;7.796;2023-11-22T06:19:06;5.60;99.90
7360;DHT22;3720;48.274;7.796;2023-11-22T06:21:38;5.60;99.90
7360;DHT22;3720;48.274;7.796;2023-11-22T06:24:10;5.60;99.90
7360;DHT22;3720;48.274;7.796;2023-11-22T06:26:46;5.50;99.90
7360;DHT22;3720;48.274;7.796;2023-11-22T06:29:19;5.50;99.90
7360;DHT22;3720;48.274;7.796;2023-11-22T06:31:51;5.50;99.90
7360;DHT22;3720;48.274;7.796;2023-11-22T06:34:24;5.40;99.90
7360;DHT22;3720;48.274;7.796;2023-11-22T06:36:55;5.30;99.90
7360;DHT22;3720;48.274;7.796;2023-11-22T06:39:28;5.20;99.90
7360;DHT22;3720;48.274;7.796;2023-11-22T06:41:59;5.20;99.90
7360;DHT22;3720;48.274;7.796;2023-11-22T06:44:34;5.10;99.90
7360;DHT22;3720;48.274;7.796;2023-11-22T06:47:06;5.10;99.90
7360;DHT22;3720;48.274;7.796;2023-11-22T06:49:38;5.10;99.90
7360;DHT22;3720;48.274;7.796;2023-11-22T06:52:09;5.00;99.90
7360;DHT22;3720;48.274;7.796;2023-11-22T06:54:41;5.00;99.90
7360;DHT22;3720;48.274;7.796;2023-11-22T06:57:13;5.00;99.90
7360;DHT22;3720;48.274;7.796;2023-11-22T06:59:46;4.90;99.90
7360;DHT22;3720;48.274;7.796;2023-11-22T07:02:18;4.80;99.90
7360;DHT22;3720;48.274;7.796;2023-11-22T07:04:50;4.80;99.90
7360;DHT22;3720;48.274;7.796;2023-11-22T07:07:22;4.80;99.90
7360;DHT22;3720;48.274;7.796;2023-11-22T07:09:54;4.80;99.90
7360;DHT22;3720;48.274;7.796;2023-11-22T07:12:27;4.80;99.90
7360;DHT22;3720;48.274;7.796;2023-11-22T07:15:00;4.70;99.90
7360;DHT22;3720;48.274;7.796;2023-11-22T07:17:33;4.70;99.90
7360;DHT22;3720;48.274;7.796;2023-11-22T07:20:07;4.70;99.90
7360;DHT22;3720;48.274;7.796;2023-11-22T07:22:43;4.70;99.90
7360;DHT22;3720;48.274;7.796;2023-11-22T07:25:15;4.70;99.90
7360;DHT22;3720;48.274;7.796;2023-11-22T07:27:49;4.70;99.90
7360;DHT22;3720;48.274;7.796;2023-11-22T07:30:22;4.60;99.90
7360;DHT22;3720;48.274;7.796;2023-11-22T07:32:57;4.60;99.90
7360;DHT22;3720;48.274;7.796;2023-11-22T07:35:30;4.60;99.90
7360;DHT22;3720;48.274;7.796;2023-11-22T07:38:02;4.60;99.90
7360;DHT22;3720;48.274;7.796;2023-11-22T07:40:34;4.60;99.90
7360;DHT22;3720;48.274;7.796;2023-11-22T07:43:07;4.60;99.90
7360;DHT22;3720;48.274;7.796;2023-11-22T07:45:41;4.60;99.90
7360;DHT22;3720;48.274;7.796;2023-11-22T07:48:14;4.60;99.90
7360;DHT22;3720;48.274;7.796;2023-11-22T07:50:46;4.60;99.90
7360;DHT22;3720;48.274;7.796;2023-11-22T07:53:19;4.60;99.90
7360;DHT22;3720;48.274;7.796;2023-11-22T07:55:51;4.70;99.90
7360;DHT22;3720;48.274;7.796;2023-11-22T07:58:23;4.70;99.90
7360;DHT22;3720;48.274;7.796;2023-11-22T08:00:58;4.80;99.90
7360;DHT22;3720;48.274;7.796;2023-11-22T08:03:30;4.80;99.90
7360;DHT22;3720;48.274;7.796;2023-11-22T08:06:02;4.80;99.90
7360;DHT22;3720;48.274;7.796;2023-11-22T08:08:33;4.80;99.90
7360;DHT22;3720;48.274;7.796;2023-11-22T08:11:09;4.70;99.90
7360;DHT22;3720;48.274;7.796;2023-11-22T08:13:45;4.70;99.90
7360;DHT22;3720;48.274;7.796;2023-11-22T08:16:19;4.70;99.90
7360;DHT22;3720;48.274;7.796;2023-11-22T08:18:51;4.80;99.90
7360;DHT22;3720;48.274;7.796;2023-11-22T08:21:23;4.80;99.90
7360;DHT22;3720;48.274;7.796;2023-11-22T08:23:55;4.80;99.90
7360;DHT22;3720;48.274;7.796;2023-11-22T08:26:27;4.80;99.90
7360;DHT22;3720;48.274;7.796;2023-11-22T08:28:59;4.80;99.90
7360;DHT22;3720;48.274;7.796;2023-11-22T08:31:32;4.80;99.90
7360;DHT22;3720;48.274;7.796;2023-11-22T08:34:04;4.80;99.90
7360;DHT22;3720;48.274;7.796;2023-11-22T08:36:37;4.80;99.90
7360;DHT22;3720;48.274;7.796;2023-11-22T08:39:09;4.80;99.90
7360;DHT22;3720;48.274;7.796;2023-11-22T08:41:41;4.80;99.90
7360;DHT22;3720;48.274;7.796;2023-11-22T08:44:13;4.90;99.90
7360;DHT22;3720;48.274;7.796;2023-11-22T08:46:46;4.90;99.90
7360;DHT22;3720;48.274;7.796;2023-11-22T08:49:18;5.00;99.90
7360;DHT22;3720;48.274;7.796;2023-11-22T08:51:50;5.00;99.90
7360;DHT22;3720;48.274;7.796;2023-11-22T08:54:22;5.00;99.90
7360;DHT22;3720;48.274;7.796;2023-11-22T08:56:54;5.00;99.90
7360;DHT22;3720;48.274;7.796;2023-11-22T08:59:27;5.00;99.90
7360;DHT22;3720;48.274;7.796;2023-11-22T09:02:01;5.00;99.90
7360;DHT22;3720;48.274;7.796;2023-11-22T09:04:33;5.00;99.90
7360;DHT22;3720;48.274;7.796;2023-11-22T09:07:06;5.00;99.90
7360;DHT22;3720;48.274;7.796;2023-11-22T09:09:37;5.00;99.90
7360;DHT22;3720;48.274;7.796;2023-11-22T09:12:11;5.00;99.90
7360;DHT22;3720;48.274;7.796;2023-11-22T09:14:44;5.00;99.90
7360;DHT22;3720;48.274;7.796;2023-11-22T09:17:17;5.00;99.90
7360;DHT22;3720;48.274;7.796;2023-11-22T09:19:49;5.10;99.90
7360;DHT22;3720;48.274;7.796;2023-11-22T09:22:20;5.10;99.90
7360;DHT22;3720;48.274;7.796;2023-11-22T09:24:52;5.10;99.90
7360;DHT22;3720;48.274;7.796;2023-11-22T09:27:24;5.10;99.90
7360;DHT22;3720;48.274;7.796;2023-11-22T09:29:56;5.10;99.90
7360;DHT22;3720;48.274;7.796;2023-11-22T09:32:29;5.00;99.90
7360;DHT22;3720;48.274;7.796;2023-11-22T09:35:01;5.10;99.90
7360;DHT22;3720;48.274;7.796;2023-11-22T09:37:34;5.00;99.90
7360;DHT22;3720;48.274;7.796;2023-11-22T09:40:07;4.90;99.90
7360;DHT22;3720;48.274;7.796;2023-11-22T09:42:39;5.00;99.90
7360;DHT22;3720;48.274;7.796;2023-11-22T09:45:12;5.00;99.90
7360;DHT22;3720;48.274;7.796;2023-11-22T09:47:50;5.00;99.90
7360;DHT22;3720;48.274;7.796;2023-11-22T09:50:29;5.00;99.90
7360;DHT22;3720;48.274;7.796;2023-11-22T09:53:02;5.00;99.90
7360;DHT22;3720;48.274;7.796;2023-11-22T09:55:41;5.00;99.90
7360;DHT22;3720;48.274;7.796;2023-11-22T09:58:16;4.90;99.90
7360;DHT22;3720;48.274;7.796;2023-11-22T10:00:50;5.00;99.90
7360;DHT22;3720;48.274;7.796;2023-11-22T10:03:27;5.00;99.90
7360;DHT22;3720;48.274;7.796;2023-11-22T10:05:59;5.10;99.90
7360;DHT22;3720;48.274;7.796;2023-11-22T10:08:31;5.10;99.90
7360;DHT22;3720;48.274;7.796;2023-11-22T10:11:03;5.10;99.90
7360;DHT22;3720;48.274;7.796;2023-11-22T10:13:36;5.20;99.90
7360;DHT22;3720;48.274;7.796;2023-11-22T10:16:12;5.30;99.90
7360;DHT22;3720;48.274;7.796;2023-11-22T10:18:48;5.30;99.90
7360;DHT22;3720;48.274;7.796;2023-11-22T10:21:22;5.40;99.90
7360;DHT22;3720;48.274;7.796;2023-11-22T10:23:55;5.40;99.90
7360;DHT22;3720;48.274;7.796;2023-11-22T10:26:27;5.50;99.90
7360;DHT22;3720;48.274;7.796;2023-11-22T10:28:59;5.50;99.90
7360;DHT22;3720;48.274;7.796;2023-11-22T10:31:34;5.50;99.90
7360;DHT22;3720;48.274;7.796;2023-11-22T10:34:09;5.50;99.90
7360;DHT22;3720;48.274;7.796;2023-11-22T10:36:41;5.60;99.90
7360;DHT22;3720;48.274;7.796;2023-11-22T10:39:13;5.60;99.90
7360;DHT22;3720;48.274;7.796;2023-11-22T10:41:47;5.60;99.90
7360;DHT22;3720;48.274;7.796;2023-11-22T10:44:22;5.60;99.90
7360;DHT22;3720;48.274;7.796;2023-11-22T10:46:55;5.70;99.90
7360;DHT22;3720;48.274;7.796;2023-11-22T10:49:28;5.70;99.90
7360;DHT22;3720;48.274;7.796;2023-11-22T10:52:03;5.70;99.90
7360;DHT22;3720;48.274;7.796;2023-11-22T10:54:38;5.70;99.90
7360;DHT22;3720;48.274;7.796;2023-11-22T10:57:16;5.70;99.90
7360;DHT22;3720;48.274;7.796;2023-11-22T10:59:54;5.60;99.90
7360;DHT22;3720;48.274;7.796;2023-11-22T11:02:28;5.70;99.90
7360;DHT22;3720;48.274;7.796;2023-11-22T11:05:08;5.60;99.90
7360;DHT22;3720;48.274;7.796;2023-11-22T11:07:49;5.60;99.90
7360;DHT22;3720;48.274;7.796;2023-11-22T11:10:22;5.60;99.90
7360;DHT22;3720;48.274;7.796;2023-11-22T11:12:54;5.60;99.90
7360;DHT22;3720;48.274;7.796;2023-11-22T11:15:26;5.60;99.90
7360;DHT22;3720;48.274;7.796;2023-11-22T11:17:59;5.60;99.90
7360;DHT22;3720;48.274;7.796;2023-11-22T11:20:45;5.50;99.90
7360;DHT22;3720;48.274;7.796;2023-11-22T11:23:20;5.50;99.90
7360;DHT22;3720;48.274;7.796;2023-11-22T11:25:54;5.60;99.90
7360;DHT22;3720;48.274;7.796;2023-11-22T11:28:26;5.60;99.90
7360;DHT22;3720;48.274;7.796;2023-11-22T11:30:58;5.60;99.90
7360;DHT22;3720;48.274;7.796;2023-11-22T11:33:33;5.60;99.90
7360;DHT22;3720;48.274;7.796;2023-11-22T11:36:07;5.60;99.90
7360;DHT22;3720;48.274;7.796;2023-11-22T11:38:39;5.60;99.90
7360;DHT22;3720;48.274;7.796;2023-11-22T11:41:12;5.60;99.90
7360;DHT22;3720;48.274;7.796;2023-11-22T11:43:46;5.60;99.90
7360;DHT22;3720;48.274;7.796;2023-11-22T11:46:18;5.60;99.90
7360;DHT22;3720;48.274;7.796;2023-11-22T11:48:51;5.60;99.90
7360;DHT22;3720;48.274;7.796;2023-11-22T11:51:26;5.60;99.90
7360;DHT22;3720;48.274;7.796;2023-11-22T11:53:58;5.60;99.90
7360;DHT22;3720;48.274;7.796;2023-11-22T11:56:30;5.60;99.90
7360;DHT22;3720;48.274;7.796;2023-11-22T11:59:02;5.50;99.90
7360;DHT22;3720;48.274;7.796;2023-11-22T12:01:35;5.50;99.90
7360;DHT22;3720;48.274;7.796;2023-11-22T12:04:07;5.60;99.90
7360;DHT22;3720;48.274;7.796;2023-11-22T12:06:40;5.60;99.90
7360;DHT22;3720;48.274;7.796;2023-11-22T12:09:12;5.60;99.90
7360;DHT22;3720;48.274;7.796;2023-11-22T12:11:45;5.60;99.90
7360;DHT22;3720;48.274;7.796;2023-11-22T12:14:17;5.80;99.90
7360;DHT22;3720;48.274;7.796;2023-11-22T12:16:50;5.70;99.90
7360;DHT22;3720;48.274;7.796;2023-11-22T12:19:22;5.70;99.90
7360;DHT22;3720;48.274;7.796;2023-11-22T12:21:55;5.70;99.90
7360;DHT22;3720;48.274;7.796;2023-11-22T12:24:28;5.70;99.90
7360;DHT22;3720;48.274;7.796;2023-11-22T12:27:00;5.60;99.90
7360;DHT22;3720;48.274;7.796;2023-11-22T12:29:31;5.70;99.90
7360;DHT22;3720;48.274;7.796;2023-11-22T12:32:05;5.60;99.90
7360;DHT22;3720;48.274;7.796;2023-11-22T12:34:37;5.80;99.90
7360;DHT22;3720;48.274;7.796;2023-11-22T12:37:10;5.90;99.90
7360;DHT22;3720;48.274;7.796;2023-11-22T12:39:42;5.80;99.90
7360;DHT22;3720;48.274;7.796;2023-11-22T12:42:16;5.80;99.90
7360;DHT22;3720;48.274;7.796;2023-11-22T12:44:48;5.80;99.90
7360;DHT22;3720;48.274;7.796;2023-11-22T12:47:31;5.80;99.90
7360;DHT22;3720;48.274;7.796;2023-11-22T12:50:06;5.80;99.90
7360;DHT22;3720;48.274;7.796;2023-11-22T12:52:40;5.80;99.90
7360;DHT22;3720;48.274;7.796;2023-11-22T12:55:12;5.80;99.90
7360;DHT22;3720;48.274;7.796;2023-11-22T12:57:44;5.70;99.90
7360;DHT22;3720;48.274;7.796;2023-11-22T13:00:27;5.70;99.90
7360;DHT22;3720;48.274;7.796;2023-11-22T13:03:00;5.70;99.90
7360;DHT22;3720;48.274;7.796;2023-11-22T13:05:31;5.70;99.90
7360;DHT22;3720;48.274;7.796;2023-11-22T13:08:05;5.80;99.90
7360;DHT22;3720;48.274;7.796;2023-11-22T13:10:37;5.80;99.90
7360;DHT22;3720;48.274;7.796;2023-11-22T13:13:09;5.90;99.90
7360;DHT22;3720;48.274;7.796;2023-11-22T13:15:40;5.90;99.90
7360;DHT22;3720;48.274;7.796;2023-11-22T13:18:12;5.90;99.90
7360;DHT22;3720;48.274;7.796;2023-11-22T13:20:45;5.80;99.90
7360;DHT22;3720;48.274;7.796;2023-11-22T13:23:18;5.90;99.90
7360;DHT22;3720;48.274;7.796;2023-11-22T13:25:50;5.90;99.90
7360;DHT22;3720;48.274;7.796;2023-11-22T13:28:22;5.90;99.90
7360;DHT22;3720;48.274;7.796;2023-11-22T13:30:55;5.90;99.90
7360;DHT22;3720;48.274;7.796;2023-11-22T13:33:27;6.00;99.90
7360;DHT22;3720;48.274;7.796;2023-11-22T13:35:59;5.90;99.90
7360;DHT22;3720;48.274;7.796;2023-11-22T13:38:32;6.00;99.90
7360;DHT22;3720;48.274;7.796;2023-11-22T13:41:04;5.90;99.90
7360;DHT22;3720;48.274;7.796;2023-11-22T13:43:36;5.90;99.90
7360;DHT22;3720;48.274;7.796;2023-11-22T13:46:08;5.90;99.90
7360;DHT22;3720;48.274;7.796;2023-11-22T13:48:42;6.00;99.90
7360;DHT22;3720;48.274;7.796;2023-11-22T13:51:14;6.00;99.90
7360;DHT22;3720;48.274;7.796;2023-11-22T13:53:47;6.00;99.90
7360;DHT22;3720;48.274;7.796;2023-11-22T13:56:23;5.90;99.90
7360;DHT22;3720;48.274;7.796;2023-11-22T13:58:55;6.00;99.90
7360;DHT22;3720;48.274;7.796;2023-11-22T14:01:28;6.00;99.90
7360;DHT22;3720;48.274;7.796;2023-11-22T14:03:59;6.00;99.90
7360;DHT22;3720;48.274;7.796;2023-11-22T14:06:32;5.90;99.90
7360;DHT22;3720;48.274;7.796;2023-11-22T14:09:06;5.90;99.90
7360;DHT22;3720;48.274;7.796;2023-11-22T14:11:39;5.80;99.90
7360;DHT22;3720;48.274;7.796;2023-11-22T14:14:11;5.80;99.90
7360;DHT22;3720;48.274;7.796;2023-11-22T14:16:42;5.70;99.90
7360;DHT22;3720;48.274;7.796;2023-11-22T14:19:15;5.70;99.90
7360;DHT22;3720;48.274;7.796;2023-11-22T14:21:47;5.80;99.90
7360;DHT22;3720;48.274;7.796;2023-11-22T14:24:20;5.80;99.90
7360;DHT22;3720;48.274;7.796;2023-11-22T14:26:53;5.70;99.90
7360;DHT22;3720;48.274;7.796;2023-11-22T14:29:25;5.70;99.90
7360;DHT22;3720;48.274;7.796;2023-11-22T14:31:57;5.60;99.90
7360;DHT22;3720;48.274;7.796;2023-11-22T14:34:29;5.50;99.90
7360;DHT22;3720;48.274;7.796;2023-11-22T14:37:01;5.50;99.90
7360;DHT22;3720;48.274;7.796;2023-11-22T14:39:34;5.50;99.90
7360;DHT22;3720;48.274;7.796;2023-11-22T14:42:07;5.50;99.90
7360;DHT22;3720;48.274;7.796;2023-11-22T14:44:39;5.50;99.90
7360;DHT22;3720;48.274;7.796;2023-11-22T14:47:10;5.40;99.90
7360;DHT22;3720;48.274;7.796;2023-11-22T14:49:47;5.40;99.90
7360;DHT22;3720;48.274;7.796;2023-11-22T14:52:19;5.40;99.90
7360;DHT22;3720;48.274;7.796;2023-11-22T14:54:53;5.40;99.90
7360;DHT22;3720;48.274;7.796;2023-11-22T14:57:25;5.40;99.90
7360;DHT22;3720;48.274;7.796;2023-11-22T14:59:57;5.40;99.90
7360;DHT22;3720;48.274;7.796;2023-11-22T15:02:29;5.40;99.90
7360;DHT22;3720;48.274;7.796;2023-11-22T15:05:01;5.40;99.90
7360;DHT22;3720;48.274;7.796;2023-11-22T15:07:34;5.40;99.90
7360;DHT22;3720;48.274;7.796;2023-11-22T15:10:08;5.40;99.90
7360;DHT22;3720;48.274;7.796;2023-11-22T15:12:41;5.50;99.90
7360;DHT22;3720;48.274;7.796;2023-11-22T15:15:12;5.40;99.90
7360;DHT22;3720;48.274;7.796;2023-11-22T15:17:44;5.30;99.90
7360;DHT22;3720;48.274;7.796;2023-11-22T15:20:16;5.40;99.90
7360;DHT22;3720;48.274;7.796;2023-11-22T15:22:48;5.30;99.90
7360;DHT22;3720;48.274;7.796;2023-11-22T15:25:21;5.30;99.90
7360;DHT22;3720;48.274;7.796;2023-11-22T15:27:53;5.30;99.90
7360;DHT22;3720;48.274;7.796;2023-11-22T15:30:25;5.30;99.90
7360;DHT22;3720;48.274;7.796;2023-11-22T15:32:57;5.30;99.90
7360;DHT22;3720;48.274;7.796;2023-11-22T15:35:29;5.30;99.90
7360;DHT22;3720;48.274;7.796;2023-11-22T15:38:00;5.30;99.90
7360;DHT22;3720;48.274;7.796;2023-11-22T15:40:34;5.20;99.90
7360;DHT22;3720;48.274;7.796;2023-11-22T15:43:05;5.20;99.90
7360;DHT22;3720;48.274;7.796;2023-11-22T15:45:37;5.20;99.90
7360;DHT22;3720;48.274;7.796;2023-11-22T15:48:10;5.10;99.90
7360;DHT22;3720;48.274;7.796;2023-11-22T15:50:43;5.10;99.90
7360;DHT22;3720;48.274;7.796;2023-11-22T15:53:15;5.10;99.90
7360;DHT22;3720;48.274;7.796;2023-11-22T15:55:48;5.00;99.90
7360;DHT22;3720;48.274;7.796;2023-11-22T15:58:20;5.10;99.90
7360;DHT22;3720;48.274;7.796;2023-11-22T16:00:52;5.00;99.90
7360;DHT22;3720;48.274;7.796;2023-11-22T16:03:26;5.00;99.90
7360;DHT22;3720;48.274;7.796;2023-11-22T16:05:59;5.00;99.90
7360;DHT22;3720;48.274;7.796;2023-11-22T16:08:31;4.90;99.90
7360;DHT22;3720;48.274;7.796;2023-11-22T16:11:04;4.90;99.90
7360;DHT22;3720;48.274;7.796;2023-11-22T16:13:36;4.90;99.90
7360;DHT22;3720;48.274;7.796;2023-11-22T16:16:08;4.90;99.90
7360;DHT22;3720;48.274;7.796;2023-11-22T16:18:42;4.80;99.90
7360;DHT22;3720;48.274;7.796;2023-11-22T16:21:14;4.90;99.90
7360;DHT22;3720;48.274;7.796;2023-11-22T16:23:45;4.90;99.90
7360;DHT22;3720;48.274;7.796;2023-11-22T16:26:19;4.90;99.90
7360;DHT22;3720;48.274;7.796;2023-11-22T16:28:50;4.90;99.90
7360;DHT22;3720;48.274;7.796;2023-11-22T16:31:22;4.90;99.90
7360;DHT22;3720;48.274;7.796;2023-11-22T16:33:54;4.90;99.90
7360;DHT22;3720;48.274;7.796;2023-11-22T16:36:28;4.90;99.90
7360;DHT22;3720;48.274;7.796;2023-11-22T16:38:59;4.90;99.90
7360;DHT22;3720;48.274;7.796;2023-11-22T16:41:33;4.90;99.90
7360;DHT22;3720;48.274;7.796;2023-11-22T16:44:05;4.80;99.90
7360;DHT22;3720;48.274;7.796;2023-11-22T16:46:37;4.80;99.90
7360;DHT22;3720;48.274;7.796;2023-11-22T16:49:09;4.80;99.90
7360;DHT22;3720;48.274;7.796;2023-11-22T16:51:44;4.80;99.90